createdAt,value
2019-02-22T00:02:15.249Z,53.57
2019-02-22T00:04:44.699Z,53.77
2019-02-22T00:07:14.486Z,53.98
2019-02-22T00:09:49.501Z,53.98
2019-02-22T00:12:15.533Z,53.75
2019-02-22T00:14:45.162Z,54.26
2019-02-22T00:17:14.822Z,54.26
2019-02-22T00:19:44.488Z,54.12
2019-02-22T00:22:14.226Z,54.30
2019-02-22T00:24:43.901Z,54.30
2019-02-22T00:27:13.540Z,53.85
2019-02-22T00:29:43.493Z,54.31
2019-02-22T00:32:13.159Z,53.83
2019-02-22T00:34:42.854Z,54.23
2019-02-22T00:37:12.547Z,54.23
2019-02-22T00:39:42.153Z,54.75
2019-02-22T00:42:11.808Z,54.63
2019-02-22T00:44:41.370Z,55.04
2019-02-22T00:47:10.916Z,55.30
2019-02-22T00:49:40.563Z,54.47
2019-02-22T00:52:10.407Z,54.69
2019-02-22T00:54:40.014Z,55.64
2019-02-22T00:57:09.596Z,55.43
2019-02-22T00:59:39.483Z,55.12
2019-02-22T01:02:09.076Z,55.00
2019-02-22T01:04:38.771Z,55.00
2019-02-22T01:07:08.346Z,55.62
2019-02-22T01:09:37.880Z,55.44
2019-02-22T01:12:07.439Z,55.14
2019-02-22T01:14:37.200Z,55.56
2019-02-22T01:17:06.803Z,55.40
2019-02-22T01:19:36.444Z,55.07
2019-02-22T01:22:07.802Z,55.35
2019-02-22T01:24:37.441Z,55.37
2019-02-22T01:27:07.240Z,55.74
2019-02-22T01:29:36.860Z,55.09
2019-02-22T01:32:06.657Z,55.26
2019-02-22T01:34:36.418Z,55.15
2019-02-22T01:37:05.958Z,55.15
2019-02-22T01:39:35.675Z,54.96
2019-02-22T01:42:05.483Z,54.96
2019-02-22T01:44:35.070Z,55.45
2019-02-22T01:47:04.711Z,55.46
2019-02-22T01:49:34.388Z,55.12
2019-02-22T01:52:04.248Z,55.21
2019-02-22T01:54:33.878Z,55.15
2019-02-22T01:57:03.341Z,55.15
2019-02-22T01:59:32.968Z,54.82
2019-02-22T02:02:02.653Z,54.53
2019-02-22T02:04:33.727Z,54.61
2019-02-22T02:07:03.530Z,55.62
2019-02-22T02:09:33.261Z,54.92
2019-02-22T02:12:02.980Z,54.92
2019-02-22T02:14:32.602Z,54.77
2019-02-22T02:17:03.892Z,54.77
2019-02-22T02:19:33.590Z,55.33
2019-02-22T02:22:03.176Z,55.00
2019-02-22T02:24:32.963Z,55.65
2019-02-22T02:27:02.680Z,55.71
2019-02-22T02:29:32.489Z,55.37
2019-02-22T02:32:02.190Z,55.26
2019-02-22T02:34:31.820Z,55.66
2019-02-22T02:37:01.681Z,55.67
2019-02-22T02:39:31.319Z,55.67
2019-02-22T02:42:03.373Z,55.47
2019-02-22T02:44:33.139Z,55.65
2019-02-22T02:47:02.756Z,55.73
2019-02-22T02:49:32.387Z,55.98
2019-02-22T02:52:02.100Z,55.57
2019-02-22T02:54:31.696Z,56.33
2019-02-22T02:57:01.207Z,55.94
2019-02-22T02:59:30.881Z,56.26
2019-02-22T03:02:01.564Z,55.91
2019-02-22T03:04:31.274Z,56.03
2019-02-22T03:07:05.950Z,55.50
2019-02-22T03:09:35.655Z,55.32
2019-02-22T03:12:05.333Z,54.45
2019-02-22T03:14:35.161Z,54.45
2019-02-22T03:17:04.848Z,54.48
2019-02-22T03:19:34.512Z,55.19
2019-02-22T03:22:04.044Z,54.26
2019-02-22T03:24:33.738Z,54.82
2019-02-22T03:27:03.408Z,54.78
2019-02-22T03:29:33.119Z,54.90
2019-02-22T03:32:02.704Z,54.24
2019-02-22T03:34:32.464Z,54.24
2019-02-22T03:37:02.195Z,53.92
2019-02-22T03:39:31.770Z,53.69
2019-02-22T03:42:01.542Z,53.96
2019-02-22T03:44:31.173Z,53.90
2019-02-22T03:47:00.853Z,54.28
2019-02-22T03:49:30.594Z,53.90
2019-02-22T03:52:01.992Z,54.19
2019-02-22T03:54:31.588Z,53.98
2019-02-22T03:57:01.351Z,54.33
2019-02-22T03:59:31.203Z,54.81
2019-02-22T04:02:00.846Z,54.84
2019-02-22T04:04:30.623Z,54.65
2019-02-22T04:07:00.293Z,54.54
2019-02-22T04:09:29.837Z,54.60
2019-02-22T04:11:59.515Z,54.10
2019-02-22T04:14:29.124Z,54.53
2019-02-22T04:16:58.729Z,54.35
2019-02-22T04:19:28.478Z,54.53
2019-02-22T04:21:58.100Z,54.53
2019-02-22T04:24:27.884Z,54.29
2019-02-22T04:26:57.624Z,54.55
2019-02-22T04:29:27.447Z,54.08
2019-02-22T04:31:57.070Z,54.61
2019-02-22T04:34:26.752Z,53.93
2019-02-22T04:36:56.461Z,54.33
2019-02-22T04:39:26.090Z,53.85
2019-02-22T04:41:58.327Z,54.27
2019-02-22T04:44:27.827Z,54.39
2019-02-22T04:46:57.516Z,54.26
2019-02-22T04:49:27.148Z,54.17
2019-02-22T04:51:56.716Z,54.13
2019-02-22T04:54:26.521Z,54.15
2019-02-22T04:56:56.108Z,53.76
2019-02-22T04:59:25.743Z,53.39
2019-02-22T05:01:55.432Z,53.49
2019-02-22T05:04:24.966Z,53.08
2019-02-22T05:06:54.663Z,53.09
2019-02-22T05:09:24.346Z,53.23
2019-02-22T05:11:54.178Z,53.16
2019-02-22T05:14:23.707Z,53.35
2019-02-22T05:16:53.508Z,54.03
2019-02-22T05:19:23.257Z,53.65
2019-02-22T05:21:52.992Z,53.79
2019-02-22T05:24:22.545Z,53.77
2019-02-22T05:26:52.296Z,53.24
2019-02-22T05:29:21.825Z,52.97
2019-02-22T05:31:51.702Z,52.79
2019-02-22T05:34:21.316Z,53.21
2019-02-22T05:36:50.932Z,52.65
2019-02-22T05:39:20.518Z,52.47
2019-02-22T05:41:50.288Z,52.15
2019-02-22T05:44:19.717Z,52.21
2019-02-22T05:46:59.959Z,51.92
2019-02-22T05:49:22.694Z,51.13
2019-02-22T05:51:52.497Z,50.77
2019-02-22T05:54:22.310Z,50.86
2019-02-22T05:56:54.708Z,50.50
2019-02-22T05:59:23.084Z,50.63
2019-02-22T06:01:52.706Z,50.47
2019-02-22T06:04:22.372Z,50.97
2019-02-22T06:06:51.912Z,50.17
2019-02-22T06:09:21.576Z,50.88
2019-02-22T06:11:51.299Z,50.29
2019-02-22T06:14:20.899Z,50.17
2019-02-22T06:16:51.883Z,50.05
2019-02-22T06:19:21.510Z,49.89
2019-02-22T06:21:51.135Z,50.15
2019-02-22T06:24:20.772Z,50.08
2019-02-22T06:26:50.356Z,50.28
2019-02-22T06:29:19.931Z,50.11
2019-02-22T06:31:49.594Z,50.44
2019-02-22T06:34:19.481Z,50.39
2019-02-22T06:37:00.774Z,50.52
2019-02-22T06:39:20.570Z,50.56
2019-02-22T06:41:50.295Z,50.90
2019-02-22T06:44:19.887Z,50.51
2019-02-22T06:46:49.478Z,49.85
2019-02-22T06:49:19.052Z,49.18
2019-02-22T06:51:48.701Z,49.64
2019-02-22T06:54:18.561Z,49.41
2019-02-22T06:56:47.983Z,48.78
2019-02-22T06:59:17.806Z,48.75
2019-02-22T07:01:50.041Z,48.75
2019-02-22T07:04:18.951Z,48.16
2019-02-22T07:06:48.583Z,48.45
2019-02-22T07:09:18.317Z,48.56
2019-02-22T07:11:54.554Z,48.79
2019-02-22T07:14:24.190Z,48.66
2019-02-22T07:16:53.994Z,49.31
2019-02-22T07:19:23.879Z,49.35
2019-02-22T07:21:53.593Z,49.81
2019-02-22T07:24:23.234Z,49.76
2019-02-22T07:26:52.733Z,50.04
2019-02-22T07:29:22.402Z,50.64
2019-02-22T07:31:52.062Z,50.64
2019-02-22T07:34:21.941Z,50.77
2019-02-22T07:36:51.548Z,51.07
2019-02-22T07:39:27.885Z,51.58
2019-02-22T07:41:52.687Z,50.98
2019-02-22T07:44:22.419Z,50.93
2019-02-22T07:46:52.050Z,50.92
2019-02-22T07:49:28.565Z,51.21
2019-02-22T07:51:58.158Z,50.52
2019-02-22T07:54:27.785Z,50.51
2019-02-22T07:56:57.415Z,50.28
2019-02-22T07:59:27.104Z,50.51
2019-02-22T08:01:56.858Z,50.04
2019-02-22T08:04:26.791Z,50.04
2019-02-22T08:06:56.459Z,50.35
2019-02-22T08:09:26.056Z,50.35
2019-02-22T08:11:55.866Z,49.89
2019-02-22T08:14:25.534Z,50.04
2019-02-22T08:16:56.477Z,50.37
2019-02-22T08:19:27.745Z,50.70
2019-02-22T08:21:57.363Z,50.09
2019-02-22T08:24:28.382Z,50.00
2019-02-22T08:26:58.100Z,49.95
2019-02-22T08:29:27.992Z,49.48
2019-02-22T08:31:57.820Z,49.70
2019-02-22T08:34:27.616Z,49.97
2019-02-22T08:36:57.376Z,49.50
2019-02-22T08:39:27.105Z,49.54
2019-02-22T08:41:57.802Z,48.83
2019-02-22T08:44:27.562Z,48.83
2019-02-22T08:46:59.600Z,48.70
2019-02-22T08:49:29.084Z,48.48
2019-02-22T08:51:58.788Z,48.92
2019-02-22T08:54:28.438Z,48.50
2019-02-22T08:56:58.057Z,49.10
2019-02-22T09:01:51.988Z,48.86
2019-02-22T09:04:21.614Z,48.78
2019-02-22T09:06:52.468Z,47.99
2019-02-22T09:09:22.128Z,47.88
2019-02-22T09:11:51.763Z,48.70
2019-02-22T09:14:21.594Z,48.35
2019-02-22T09:16:51.174Z,47.87
2019-02-22T09:19:21.005Z,47.72
2019-02-22T09:21:50.845Z,48.46
2019-02-22T09:24:20.543Z,48.75
2019-02-22T09:26:50.143Z,48.82
2019-02-22T09:29:19.881Z,48.98
2019-02-22T09:31:49.547Z,49.71
2019-02-22T09:34:19.204Z,49.57
2019-02-22T09:36:48.936Z,50.07
2019-02-22T09:39:18.827Z,51.69
2019-02-22T09:41:48.458Z,51.10
2019-02-22T09:44:18.064Z,52.04
2019-02-22T09:46:48.062Z,50.91
2019-02-22T09:49:17.676Z,51.41
2019-02-22T09:51:47.167Z,50.71
2019-02-22T09:54:16.760Z,51.84
2019-02-22T09:56:46.418Z,53.40
2019-02-22T09:59:15.977Z,53.60
2019-02-22T10:01:45.832Z,53.87
2019-02-22T10:04:15.435Z,54.40
2019-02-22T10:06:45.252Z,54.11
2019-02-22T10:09:14.894Z,53.83
2019-02-22T10:11:44.357Z,53.98
2019-02-22T10:14:14.126Z,54.51
2019-02-22T10:16:43.959Z,54.28
2019-02-22T10:19:13.933Z,54.37
2019-02-22T10:21:43.722Z,55.29
2019-02-22T10:24:13.381Z,56.83
2019-02-22T10:26:42.959Z,56.59
2019-02-22T10:29:12.737Z,57.35
2019-02-22T10:31:42.373Z,57.97
2019-02-22T10:34:11.936Z,59.63
2019-02-22T10:36:45.171Z,60.39
2019-02-22T10:39:13.083Z,61.96
2019-02-22T10:41:42.766Z,61.94
2019-02-22T10:44:17.799Z,61.83
2019-02-22T10:46:43.706Z,62.81
2019-02-22T10:49:14.744Z,62.92
2019-02-22T10:51:44.412Z,63.10
2019-02-22T10:54:14.155Z,61.71
2019-02-22T10:56:44.032Z,62.80
2019-02-22T10:59:15.437Z,62.79
2019-02-22T11:01:45.190Z,63.78
2019-02-22T11:04:14.779Z,62.34
2019-02-22T11:06:46.838Z,62.42
2019-02-22T11:09:18.030Z,62.54
2019-02-22T11:11:48.805Z,61.54
2019-02-22T11:14:28.448Z,62.01
2019-02-22T11:16:49.628Z,62.92
2019-02-22T11:19:19.260Z,64.29
2019-02-22T11:21:48.876Z,63.02
2019-02-22T11:24:19.987Z,62.78
2019-02-22T11:26:49.767Z,62.70
2019-02-22T11:29:19.290Z,62.00
2019-02-22T11:31:48.881Z,62.13
2019-02-22T11:34:18.496Z,61.17
2019-02-22T11:36:48.087Z,61.27
2019-02-22T11:39:17.883Z,62.87
2019-02-22T11:41:48.965Z,64.48
2019-02-22T11:44:20.144Z,63.85
2019-02-22T11:46:51.035Z,64.40
2019-02-22T11:49:21.305Z,63.04
2019-02-22T11:51:51.451Z,63.83
2019-02-22T11:54:21.808Z,62.62
2019-02-22T11:56:51.562Z,61.25
2019-02-22T11:59:21.780Z,61.89
2019-02-22T12:01:52.273Z,62.27
2019-02-22T12:04:22.152Z,61.43
2019-02-22T12:06:53.588Z,61.75
2019-02-22T12:09:23.268Z,62.28
2019-02-22T12:11:54.238Z,62.89
2019-02-22T12:14:24.563Z,61.52
2019-02-22T12:16:54.633Z,62.78
2019-02-22T12:19:24.952Z,60.83
2019-02-22T12:21:56.546Z,61.28
2019-02-22T12:24:27.069Z,62.00
2019-02-22T12:26:57.879Z,61.08
2019-02-22T12:29:28.032Z,60.83
2019-02-22T12:31:59.451Z,61.53
2019-02-22T12:34:30.805Z,60.47
2019-02-22T12:37:01.657Z,60.49
2019-02-22T12:39:32.254Z,60.12
2019-02-22T12:42:02.879Z,60.02
2019-02-22T12:44:33.279Z,59.75
2019-02-22T12:47:02.883Z,60.29
2019-02-22T12:49:33.933Z,60.38
2019-02-22T12:52:04.157Z,59.53
2019-02-22T12:54:35.739Z,59.63
2019-02-22T12:57:06.295Z,59.98
2019-02-22T12:59:37.087Z,60.80
2019-02-22T13:02:08.211Z,60.58
2019-02-22T13:04:37.789Z,61.61
2019-02-22T13:07:09.804Z,61.25
2019-02-22T13:09:41.161Z,61.09
2019-02-22T13:12:14.243Z,62.69
2019-02-22T13:14:44.369Z,61.93
2019-02-22T13:17:14.680Z,62.00
2019-02-22T13:19:44.855Z,62.31
2019-02-22T13:22:15.531Z,62.26
2019-02-22T13:24:45.195Z,62.49
2019-02-22T13:27:15.540Z,63.67
2019-02-22T13:29:45.846Z,64.00
2019-02-22T13:32:15.904Z,63.64
2019-02-22T13:34:46.159Z,64.45
2019-02-22T13:37:16.262Z,63.22
2019-02-22T13:39:48.684Z,65.21
2019-02-22T13:42:19.200Z,64.60
2019-02-22T13:44:49.338Z,64.76
2019-02-22T13:47:19.399Z,65.68
2019-02-22T13:49:49.791Z,65.91
2019-02-22T13:52:20.323Z,67.11
2019-02-22T13:54:52.788Z,66.14
2019-02-22T13:57:23.173Z,66.32
2019-02-22T13:59:52.860Z,66.50
2019-02-22T14:02:25.544Z,66.49
2019-02-22T14:04:55.113Z,65.97
2019-02-22T14:07:24.953Z,66.06
2019-02-22T14:09:54.618Z,64.07
2019-02-22T14:12:24.334Z,66.43
2019-02-22T14:14:53.970Z,66.72
2019-02-22T14:17:23.708Z,65.08
2019-02-22T14:19:53.219Z,66.26
2019-02-22T14:22:22.948Z,66.58
2019-02-22T14:24:52.649Z,66.12
2019-02-22T14:27:22.307Z,66.03
2019-02-22T14:29:51.940Z,67.19
2019-02-22T14:32:21.530Z,67.25
2019-02-22T14:34:51.134Z,66.59
2019-02-22T14:37:21.016Z,66.64
2019-02-22T14:40:01.053Z,66.52
2019-02-22T14:42:22.296Z,66.30
2019-02-22T14:44:52.123Z,66.83
2019-02-22T14:47:21.943Z,66.97
2019-02-22T14:49:51.687Z,67.63
2019-02-22T14:52:21.303Z,66.78
2019-02-22T14:54:50.950Z,67.05
2019-02-22T14:57:20.554Z,67.03
2019-02-22T14:59:51.771Z,67.56
2019-02-22T15:02:21.400Z,66.89
2019-02-22T15:04:51.141Z,66.71
2019-02-22T15:07:20.789Z,66.79
2019-02-22T15:09:50.383Z,66.13
2019-02-22T15:12:20.160Z,66.95
2019-02-22T15:14:49.787Z,67.30
2019-02-22T15:17:31.493Z,67.76
2019-02-22T15:20:01.061Z,67.76
2019-02-22T15:22:30.795Z,68.82
2019-02-22T15:25:00.357Z,68.54
2019-02-22T15:27:30.075Z,67.96
2019-02-22T15:30:00.868Z,68.71
2019-02-22T15:32:30.594Z,68.58
2019-02-22T15:35:00.329Z,69.17
2019-02-22T15:37:29.871Z,68.76
2019-02-22T15:40:00.699Z,68.28
2019-02-22T15:42:30.349Z,68.49
2019-02-22T15:45:01.786Z,68.67
2019-02-22T15:47:31.472Z,68.67
2019-02-22T15:50:02.097Z,69.07
2019-02-22T15:52:31.847Z,69.35
2019-02-22T15:55:01.591Z,69.51
2019-02-22T15:57:31.329Z,69.75
2019-02-22T16:00:01.213Z,70.64
2019-02-22T16:02:30.995Z,70.64
2019-02-22T16:05:11.688Z,69.29
2019-02-22T16:07:44.603Z,69.29
2019-02-22T16:10:15.974Z,68.86
2019-02-22T16:12:45.888Z,68.75
2019-02-22T16:15:16.798Z,67.94
2019-02-22T16:17:46.376Z,68.06
2019-02-22T16:20:16.143Z,68.42
2019-02-22T16:22:45.772Z,67.83
2019-02-22T16:25:19.731Z,67.83
2019-02-22T16:27:47.095Z,68.20
2019-02-22T16:30:18.837Z,69.07
2019-02-22T16:32:50.104Z,69.29
2019-02-22T16:35:19.729Z,68.70
2019-02-22T16:37:49.359Z,68.16
2019-02-22T16:40:21.649Z,68.16
2019-02-22T16:42:51.358Z,67.85
2019-02-22T16:45:21.092Z,67.71
2019-02-22T16:47:53.620Z,67.12
2019-02-22T16:50:25.474Z,67.47
2019-02-22T16:52:55.232Z,67.49
2019-02-22T16:55:25.157Z,67.10
2019-02-22T16:57:54.939Z,67.51
2019-02-22T17:00:24.893Z,66.92
2019-02-22T17:02:54.530Z,66.90
2019-02-22T17:05:24.310Z,67.24
2019-02-22T17:07:53.837Z,67.12
2019-02-22T17:10:23.382Z,67.39
2019-02-22T17:12:53.159Z,67.28
2019-02-22T17:15:24.461Z,68.02
2019-02-22T17:17:54.163Z,66.63
2019-02-22T17:20:25.730Z,67.08
2019-02-22T17:22:55.389Z,66.98
2019-02-22T17:25:25.018Z,66.51
2019-02-22T17:27:54.760Z,67.13
2019-02-22T17:30:24.569Z,67.06
2019-02-22T17:32:54.095Z,67.08
2019-02-22T17:35:23.874Z,67.60
2019-02-22T17:37:53.645Z,67.83
2019-02-22T17:40:23.275Z,67.01
2019-02-22T17:42:54.080Z,67.36
2019-02-22T17:45:23.793Z,67.85
2019-02-22T17:47:53.544Z,68.04
2019-02-22T17:50:23.307Z,68.31
2019-02-22T17:52:52.900Z,68.41
2019-02-22T17:55:22.571Z,68.33
2019-02-22T17:57:53.358Z,68.71
2019-02-22T18:00:23.595Z,69.10
2019-02-22T18:02:54.411Z,68.21
2019-02-22T18:05:25.046Z,69.44
2019-02-22T18:07:54.785Z,69.48
2019-02-22T18:10:24.496Z,69.55
2019-02-22T18:12:54.400Z,70.00
2019-02-22T18:15:26.233Z,70.23
2019-02-22T18:17:58.093Z,70.30
2019-02-22T18:20:27.937Z,70.50
2019-02-22T18:22:57.492Z,70.72
2019-02-22T18:25:27.294Z,70.62
2019-02-22T18:27:57.196Z,71.61
2019-02-22T18:30:26.785Z,71.33
2019-02-22T18:32:56.461Z,71.10
2019-02-22T18:35:26.186Z,71.02
2019-02-22T18:37:56.099Z,70.93
2019-02-22T18:40:26.006Z,70.68
2019-02-22T18:42:55.780Z,71.28
2019-02-22T18:45:25.624Z,71.17
2019-02-22T18:47:55.399Z,70.95
2019-02-22T18:50:25.003Z,70.89
2019-02-22T18:52:54.623Z,70.65
2019-02-22T18:55:24.378Z,71.21
2019-02-22T18:57:54.140Z,70.67
2019-02-22T19:00:24.042Z,70.95
2019-02-22T19:02:53.647Z,70.98
2019-02-22T19:05:23.308Z,70.90
2019-02-22T19:07:52.810Z,70.93
2019-02-22T19:10:22.334Z,71.07
2019-02-22T19:12:53.447Z,71.27
2019-02-22T19:15:23.192Z,70.93
2019-02-22T19:17:53.021Z,70.91
2019-02-22T19:20:24.459Z,71.21
2019-02-22T19:22:54.039Z,71.75
2019-02-22T19:25:23.766Z,71.87
2019-02-22T19:27:53.443Z,72.11
2019-02-22T19:30:23.226Z,72.68
2019-02-22T19:32:52.846Z,72.31
2019-02-22T19:35:22.633Z,72.40
2019-02-22T19:37:52.431Z,72.73
2019-02-22T19:40:22.363Z,72.79
2019-02-22T19:42:52.167Z,73.22
2019-02-22T19:45:21.888Z,73.89
2019-02-22T19:47:51.592Z,74.15
2019-02-22T19:50:21.314Z,74.55
2019-02-22T19:52:51.022Z,74.85
2019-02-22T19:55:20.926Z,74.74
2019-02-22T19:57:50.603Z,74.88
2019-02-22T20:00:20.495Z,75.16
2019-02-22T20:02:50.164Z,74.98
2019-02-22T20:05:19.778Z,74.50
2019-02-22T20:07:49.424Z,74.83
2019-02-22T20:10:19.351Z,74.86
2019-02-22T20:12:49.211Z,75.19
2019-02-22T20:15:19.100Z,75.95
2019-02-22T20:17:54.316Z,75.14
2019-02-22T20:20:20.020Z,75.67
2019-02-22T20:22:49.661Z,75.64
2019-02-22T20:25:19.227Z,75.85
2019-02-22T20:27:48.860Z,75.38
2019-02-22T20:30:18.985Z,76.01
2019-02-22T20:32:48.601Z,76.25
2019-02-22T20:35:19.830Z,76.50
2019-02-22T20:37:53.025Z,76.66
2019-02-22T20:40:21.039Z,76.33
2019-02-22T20:42:53.679Z,76.14
2019-02-22T20:45:23.356Z,76.74
2019-02-22T20:48:04.244Z,76.35
2019-02-22T20:50:24.481Z,75.24
2019-02-22T20:52:54.303Z,75.90
2019-02-22T20:55:24.024Z,75.91
2019-02-22T20:57:53.919Z,75.44
2019-02-22T21:00:23.706Z,75.50
2019-02-22T21:02:53.323Z,74.98
2019-02-22T21:05:23.118Z,75.69
2019-02-22T21:07:52.622Z,75.51
2019-02-22T21:10:22.919Z,76.36
2019-02-22T21:12:56.132Z,75.68
2019-02-22T21:15:27.098Z,75.92
2019-02-22T21:17:56.697Z,76.23
2019-02-22T21:20:26.365Z,76.58
2019-02-22T21:22:56.025Z,76.56
2019-02-22T21:25:25.881Z,76.13
2019-02-22T21:27:55.434Z,76.15
2019-02-22T21:30:25.079Z,76.16
2019-02-22T21:32:54.646Z,75.77
2019-02-22T21:35:24.210Z,75.81
2019-02-22T21:37:53.847Z,76.03
2019-02-22T21:40:23.568Z,76.50
2019-02-22T21:42:53.316Z,75.90
2019-02-22T21:45:25.027Z,76.06
2019-02-22T21:47:55.782Z,75.99
2019-02-22T21:50:25.439Z,75.89
2019-02-22T21:52:54.998Z,76.00
2019-02-22T21:55:24.580Z,76.70
2019-02-22T21:57:54.624Z,76.37
2019-02-22T22:00:24.472Z,75.84
2019-02-22T22:02:54.431Z,76.38
2019-02-22T22:05:23.932Z,76.14
2019-02-22T22:07:53.635Z,76.52
2019-02-22T22:10:23.213Z,76.37
2019-02-22T22:12:52.880Z,77.04
2019-02-22T22:15:22.630Z,75.81
2019-02-22T22:17:54.508Z,75.54
2019-02-22T22:20:24.199Z,76.46
2019-02-22T22:22:53.739Z,76.28
2019-02-22T22:25:24.512Z,75.86
2019-02-22T22:27:54.283Z,76.52
2019-02-22T22:30:23.941Z,75.78
2019-02-22T22:32:53.808Z,73.91
2019-02-22T22:35:23.748Z,73.87
2019-02-22T22:37:53.405Z,73.06
2019-02-22T22:40:23.011Z,70.66
2019-02-22T22:42:52.688Z,71.47
2019-02-22T22:45:22.399Z,71.75
2019-02-22T22:47:52.083Z,71.43
2019-02-22T22:50:21.877Z,71.14
2019-02-22T22:52:51.654Z,72.20
2019-02-22T22:55:21.391Z,71.58
2019-02-22T22:57:51.141Z,71.53
2019-02-22T23:00:59.005Z,72.04
2019-02-22T23:03:28.823Z,71.99
2019-02-22T23:05:58.701Z,72.51
2019-02-22T23:08:28.425Z,72.51
2019-02-22T23:10:58.120Z,72.30
2019-02-22T23:13:27.978Z,72.11
2019-02-22T23:15:58.610Z,72.39
2019-02-22T23:18:28.239Z,72.39
2019-02-22T23:20:58.008Z,70.81
2019-02-22T23:23:27.516Z,72.91
2019-02-22T23:25:57.132Z,72.91
2019-02-22T23:28:28.198Z,71.58
2019-02-22T23:30:57.908Z,70.03
2019-02-22T23:33:27.500Z,73.29
2019-02-22T23:35:57.313Z,71.06
2019-02-22T23:38:27.024Z,71.06
2019-02-22T23:40:56.780Z,72.57
2019-02-22T23:43:26.606Z,73.13
2019-02-22T23:45:58.108Z,73.19
2019-02-22T23:48:27.846Z,72.82
2019-02-22T23:50:57.590Z,73.49
2019-02-22T23:53:27.357Z,73.51
2019-02-22T23:55:58.109Z,73.78
2019-02-22T23:58:27.680Z,72.23
